Aviation Digital Data Service (ADDS)

Output produced by METARs form (0745 UTC 25 April 2019)
found at http://www.aviationweather.gov/metar/data/
 
TAF RJAA 250508Z 2506/2612 36004KT 8000 FEW012 BKN020 
     TEMPO 2510/2514 4000 BR 
     BECMG 2514/2516 04015KT 4000 -RA BR FEW005 BKN008 
     TEMPO 2515/2521 3000 -RA BR FEW002 BKN005 
     BECMG 2600/2603 8000 NSW FEW008 BKN012